Time;durP1;ratioP1;P1;durP2;ratioP2;P2;SDS_P1;SDS_P2;PMS_P1;PMS_P2;Temp;Humidity;BMP_temperature;BMP_pressure;BME280_temperature;BME280_humidity;BME280_pressure;Samples;Min_cycle;Max_cycle;Signal;HPM_P1;HPM_P2
2022/08/11 00:00:44;;;;;;;;;;;;;;;;;;5056717;28;1453;-71
2022/08/11 00:03:12;;;;;;;;;;;;;;;;;;5056583;28;1025;-71
2022/08/11 00:05:43;;;;;;;;;;;;;;;;;;5074705;28;1036;-71
2022/08/11 00:08:09;;;;;;;;;;;;;;;;;;5074470;28;993;-71
2022/08/11 00:10:35;;;;;;;;;;;;;;;;;;5074202;28;1395;-71
2022/08/11 00:13:02;;;;;;;;;;;;;;;;;;5073997;28;1914;-71
2022/08/11 00:15:37;;;;;;;;;;;;;;;;;;5074461;28;968;-71
2022/08/11 00:18:03;;;;;;;;;;;;;;;;;;5056562;28;997;-71
2022/08/11 00:20:30;;;;;;;;;;;;;;;;;;5074372;28;1337;-71
2022/08/11 00:23:00;;;;;;;;;;;;;;;;;;5073879;28;1220;-71
2022/08/11 00:25:26;;;;;;;;;;;;;;;;;;5074082;28;790;-71
2022/08/11 00:27:52;;;;;;;;;;;;;;;;;;5055624;28;1150;-71
2022/08/11 00:30:18;;;;;;;;;;;;;;;;;;5074116;28;1396;-71
2022/08/11 00:32:52;;;;;;;;;;;;;;;;;;5073561;28;1914;-71
2022/08/11 00:35:20;;;;;;;;;;;;;;;;;;5074169;28;991;-71
2022/08/11 00:37:47;;;;;;;;;;;;;;;;;;5073863;28;1123;-69
2022/08/11 00:40:15;;;;;;;;;;;;;;;;;;5074023;28;1424;-71
2022/08/11 00:42:43;;;;;;;;;;;;;;;;;;5073637;28;1072;-71
2022/08/11 00:45:10;;;;;;;;;;;;;;;;;;5073935;28;869;-71
2022/08/11 00:47:41;;;;;;;;;;;;;;;;;;5055650;28;1161;-71
2022/08/11 00:50:13;;;;;;;;;;;;;;;;;;5073707;28;1403;-72
2022/08/11 00:52:44;;;;;;;;;;;;;;;;;;5073296;28;1886;-71
2022/08/11 00:55:25;;;;;;;;;;;;;;;;;;5073737;28;929;-71
2022/08/11 00:58:10;;;;;;;;;;;;;;;;;;5073623;28;1055;-70
2022/08/11 01:00:42;;;;;;;;;;;;;;;;;;5073661;28;1381;-71
2022/08/11 01:03:18;;;;;;;;;;;;;;;;;;5073048;28;878;-71
2022/08/11 01:06:06;;;;;;;;;;;;;;;;;;5073146;28;1051;-71
2022/08/11 01:08:51;;;;;;;;;;;;;;;;;;5073501;28;1075;-71
2022/08/11 01:11:22;;;;;;;;;;;;;;;;;;5073209;28;965;-70
2022/08/11 01:14:09;;;;;;;;;;;;;;;;;;5073340;28;1971;-70
2022/08/11 01:16:39;;;;;;;;;;;;;;;;;;5067937;28;998;-69
2022/08/11 01:19:14;;;;;;;;;;;;;;;;;;5073283;28;1395;-71
2022/08/11 01:22:13;;;;;;;;;;;;;;;;;;5072722;28;1060;-71
2022/08/11 01:24:51;;;;;;;;;;;;;;;;;;5073102;28;853;-70
2022/08/11 01:27:22;;;;;;;;;;;;;;;;;;5073103;28;1063;-71
2022/08/11 01:29:55;;;;;;;;;;;;;;;;;;5072480;28;1490;-71
2022/08/11 01:32:42;;;;;;;;;;;;;;;;;;5072701;28;949;-71
2022/08/11 01:35:21;;;;;;;;;;;;;;;;;;5047221;28;1098;-72
2022/08/11 01:38:05;;;;;;;;;;;;;;;;;;5072605;28;1066;-71
2022/08/11 01:40:51;;;;;;;;;;;;;;;;;;5072144;28;1535;-71
2022/08/11 01:46:19;;;;;;;;;;;;;;;;;;5072605;28;801;-69
2022/08/11 01:48:49;;;;;;;;;;;;;;;;;;5072613;28;839;-70
2022/08/11 01:51:23;;;;;;;;;;;;;;;;;;5071755;28;956;-70
2022/08/11 01:53:54;;;;;;;;;;;;;;;;;;5072187;28;1976;-72
2022/08/11 01:56:30;;;;;;;;;;;;;;;;;;5054563;28;1135;-71
2022/08/11 01:58:58;;;;;;;;;;;;;;;;;;5054402;28;1347;-71
2022/08/11 02:01:28;;;;;;;;;;;;;;;;;;5071899;28;964;-71
2022/08/11 02:03:55;;;;;;;;;;;;;;;;;;5072237;28;1067;-71
2022/08/11 02:09:12;;;;;;;;;;;;;;;;;;5072212;28;1341;-70
2022/08/11 02:11:37;;;;;;;;;;;;;;;;;;5071653;28;952;-71
2022/08/11 02:14:12;;;;;;;;;;;;;;;;;;5054024;28;1988;-72
2022/08/11 02:16:53;;;;;;;;;;;;;;;;;;5071774;28;905;-71
2022/08/11 02:25:04;;;;;;;;;;;;;;;;;;5071853;28;929;-70
2022/08/11 02:27:34;;;;;;;;;;;;;;;;;;5071632;28;976;-70
2022/08/11 02:30:05;;;;;;;;;;;;;;;;;;5071728;28;1406;-70
2022/08/11 02:35:17;;;;;;;;;;;;;;;;;;5054052;28;901;-70
2022/08/11 02:37:48;;;;;;;;;;;;;;;;;;5071565;28;1051;-70
2022/08/11 02:40:21;;;;;;;;;;;;;;;;;;5071617;28;1412;-70
2022/08/11 02:42:55;;;;;;;;;;;;;;;;;;5070992;28;1087;-70
2022/08/11 02:45:29;;;;;;;;;;;;;;;;;;5071683;28;956;-69
2022/08/11 02:50:42;;;;;;;;;;;;;;;;;;5071315;28;1480;-70
2022/08/11 02:53:11;;;;;;;;;;;;;;;;;;5071044;28;1968;-69
2022/08/11 02:55:38;;;;;;;;;;;;;;;;;;5072857;28;803;-70
2022/08/11 02:58:11;;;;;;;;;;;;;;;;;;5071392;28;1064;-71
2022/08/11 03:00:43;;;;;;;;;;;;;;;;;;5071231;28;1411;-70
2022/08/11 03:03:16;;;;;;;;;;;;;;;;;;5070202;28;1024;-71
2022/08/11 03:05:45;;;;;;;;;;;;;;;;;;5071368;28;1119;-70
2022/08/11 03:08:13;;;;;;;;;;;;;;;;;;5071231;28;1114;-70
2022/08/11 03:10:42;;;;;;;;;;;;;;;;;;5071324;28;1387;-71
2022/08/11 03:18:55;;;;;;;;;;;;;;;;;;5066620;28;1309;-70
2022/08/11 03:21:21;;;;;;;;;;;;;;;;;;5070999;28;913;-70
2022/08/11 03:23:50;;;;;;;;;;;;;;;;;;5071067;28;1056;-70
2022/08/11 03:26:23;;;;;;;;;;;;;;;;;;5053145;28;1168;-70
2022/08/11 03:28:51;;;;;;;;;;;;;;;;;;5070997;28;1379;-70
2022/08/11 03:31:19;;;;;;;;;;;;;;;;;;5070818;28;1067;-69
2022/08/11 03:34:02;;;;;;;;;;;;;;;;;;5070966;28;1914;-71
2022/08/11 03:36:53;;;;;;;;;;;;;;;;;;5070734;28;775;-70
2022/08/11 03:39:22;;;;;;;;;;;;;;;;;;5055090;28;1537;-70
2022/08/11 03:41:49;;;;;;;;;;;;;;;;;;5067949;28;1427;-69
2022/08/11 03:44:20;;;;;;;;;;;;;;;;;;5067168;28;1344;-71
2022/08/11 03:46:56;;;;;;;;;;;;;;;;;;5058261;28;1363;-71
2022/08/11 03:49:25;;;;;;;;;;;;;;;;;;5062335;28;1389;-70
2022/08/11 03:51:53;;;;;;;;;;;;;;;;;;5069473;28;1634;-73
2022/08/11 03:54:23;;;;;;;;;;;;;;;;;;5066513;28;1910;-70
2022/08/11 03:57:08;;;;;;;;;;;;;;;;;;5066606;28;1229;-71
2022/08/11 03:59:51;;;;;;;;;;;;;;;;;;5070693;28;1387;-72
2022/08/11 04:02:22;;;;;;;;;;;;;;;;;;5070220;28;1238;-71
2022/08/11 04:04:59;;;;;;;;;;;;;;;;;;5068662;28;1475;-70
2022/08/11 04:07:46;;;;;;;;;;;;;;;;;;5063123;28;1151;-70
2022/08/11 04:10:40;;;;;;;;;;;;;;;;;;5036596;28;1343;-71
2022/08/11 04:13:13;;;;;;;;;;;;;;;;;;5061603;28;1067;-72
2022/08/11 04:15:59;;;;;;;;;;;;;;;;;;5072643;28;1985;-71
2022/08/11 04:18:30;;;;;;;;;;;;;;;;;;5074323;28;622;-71
2022/08/11 04:21:03;;;;;;;;;;;;;;;;;;5074028;28;1290;-72
2022/08/11 04:23:40;;;;;;;;;;;;;;;;;;5074133;28;1075;-72
2022/08/11 04:26:17;;;;;;;;;;;;;;;;;;5074440;28;841;-71
2022/08/11 04:28:55;;;;;;;;;;;;;;;;;;5074214;28;1051;-71
2022/08/11 04:31:29;;;;;;;;;;;;;;;;;;5073593;28;806;-70
2022/08/11 04:33:59;;;;;;;;;;;;;;;;;;5073883;28;1906;-71
2022/08/11 04:39:18;;;;;;;;;;;;;;;;;;5072912;28;1297;-72
2022/08/11 04:44:46;;;;;;;;;;;;;;;;;;5061031;28;1219;-71
2022/08/11 05:01:43;;;;;;;;;;;;;;;;;;5073229;28;1028;-73
2022/08/11 05:06:57;;;;;;;;;;;;;;;;;;5072211;28;1127;-72
2022/08/11 05:09:28;;;;;;;;;;;;;;;;;;5073976;28;1387;-72
2022/08/11 05:12:09;;;;;;;;;;;;;;;;;;5055292;28;822;-71
2022/08/11 05:36:44;;;;;;;;;;;;;;;;;;5010154;28;1004;-71
2022/08/11 05:58:22;;;;;;;;;;;;;;;;;;5023397;28;1227;-71
2022/08/11 06:00:48;;;;;;;;;;;;;;;;;;5070482;28;1417;-72
2022/08/11 06:03:23;;;;;;;;;;;;;;;;;;5056182;28;1393;-72
2022/08/11 06:05:49;;;;;;;;;;;;;;;;;;5071201;28;1334;-71
2022/08/11 06:08:15;;;;;;;;;;;;;;;;;;5070918;28;1184;-72
2022/08/11 06:10:42;;;;;;;;;;;;;;;;;;5070768;28;1403;-72
2022/08/11 06:13:08;;;;;;;;;;;;;;;;;;5060332;28;1286;-71
2022/08/11 06:15:43;;;;;;;;;;;;;;;;;;5071327;28;1918;-72
2022/08/11 06:18:10;;;;;;;;;;;;;;;;;;5070845;28;1231;-72
2022/08/11 06:20:40;;;;;;;;;;;;;;;;;;5071113;28;1416;-71
2022/08/11 06:23:08;;;;;;;;;;;;;;;;;;5070916;28;1315;-72
2022/08/11 06:25:35;;;;;;;;;;;;;;;;;;5071723;28;814;-71
2022/08/11 06:28:02;;;;;;;;;;;;;;;;;;5071259;28;1071;-71
2022/08/11 06:30:33;;;;;;;;;;;;;;;;;;5071087;28;1444;-72
2022/08/11 06:33:00;;;;;;;;;;;;;;;;;;5069963;28;1120;-72
2022/08/11 06:35:29;;;;;;;;;;;;;;;;;;5071578;28;1918;-71
2022/08/11 06:38:05;;;;;;;;;;;;;;;;;;5070820;28;1068;-71
2022/08/11 06:40:34;;;;;;;;;;;;;;;;;;5066077;28;1396;-71
2022/08/11 06:43:02;;;;;;;;;;;;;;;;;;5070700;28;1219;-71
2022/08/11 06:45:30;;;;;;;;;;;;;;;;;;5053623;28;1561;-70
2022/08/11 06:47:59;;;;;;;;;;;;;;;;;;5070871;28;1290;-72
2022/08/11 06:53:11;;;;;;;;;;;;;;;;;;5069314;28;1237;-72
2022/08/11 07:01:11;;;;;;;;;;;;;;;;;;5070648;28;1383;-71
2022/08/11 07:03:39;;;;;;;;;;;;;;;;;;5070958;28;972;-72
2022/08/11 07:06:06;;;;;;;;;;;;;;;;;;5070674;28;1005;-71
2022/08/11 07:17:13;;;;;;;;;;;;;;;;;;5085983;28;976;-71
2022/08/11 07:30:42;;;;;;;;;;;;;;;;;;5036004;28;1435;-72
2022/08/11 07:33:08;;;;;;;;;;;;;;;;;;5070260;28;928;-70
2022/08/11 07:35:35;;;;;;;;;;;;;;;;;;5070697;28;1910;-72
2022/08/11 07:38:03;;;;;;;;;;;;;;;;;;5070671;28;791;-73
2022/08/11 07:40:30;;;;;;;;;;;;;;;;;;5052468;28;1403;-71
2022/08/11 07:42:57;;;;;;;;;;;;;;;;;;5069950;28;1064;-72
2022/08/11 07:53:36;;;;;;;;;;;;;;;;;;5073751;28;1472;-73
2022/08/11 07:56:05;;;;;;;;;;;;;;;;;;5074339;28;1976;-73
2022/08/11 08:17:49;;;;;;;;;;;;;;;;;;5076338;28;949;-73
2022/08/11 08:20:16;;;;;;;;;;;;;;;;;;5093933;28;1377;-73
2022/08/11 08:22:42;;;;;;;;;;;;;;;;;;5094076;28;1102;-73
2022/08/11 08:25:09;;;;;;;;;;;;;;;;;;5094373;28;1087;-74
2022/08/11 08:27:37;;;;;;;;;;;;;;;;;;5076128;28;1209;-73
2022/08/11 08:32:48;;;;;;;;;;;;;;;;;;5093721;28;1098;-74
2022/08/11 08:35:14;;;;;;;;;;;;;;;;;;5093775;28;1914;-74
2022/08/11 08:37:40;;;;;;;;;;;;;;;;;;5093522;28;1110;-73
2022/08/11 08:40:07;;;;;;;;;;;;;;;;;;5093686;28;1412;-75
2022/08/11 08:42:35;;;;;;;;;;;;;;;;;;5093474;28;1018;-74
2022/08/11 08:45:04;;;;;;;;;;;;;;;;;;5093505;28;1055;-73
2022/08/11 08:47:30;;;;;;;;;;;;;;;;;;5094148;28;1067;-73
2022/08/11 08:49:59;;;;;;;;;;;;;;;;;;5093452;28;1352;-74
2022/08/11 08:52:25;;;;;;;;;;;;;;;;;;5093195;28;1047;-73
2022/08/11 08:54:54;;;;;;;;;;;;;;;;;;5093215;28;1926;-74
2022/08/11 08:57:20;;;;;;;;;;;;;;;;;;5093650;28;1063;-73
2022/08/11 08:59:47;;;;;;;;;;;;;;;;;;5094394;28;1302;-73
2022/08/11 09:02:15;;;;;;;;;;;;;;;;;;5091850;28;1059;-73
2022/08/11 09:04:43;;;;;;;;;;;;;;;;;;5075326;28;1237;-73
2022/08/11 09:07:11;;;;;;;;;;;;;;;;;;5093370;28;1114;-73
2022/08/11 09:09:37;;;;;;;;;;;;;;;;;;5075068;28;1388;-73
2022/08/11 09:12:04;;;;;;;;;;;;;;;;;;5092743;28;1214;-74
2022/08/11 09:17:14;;;;;;;;;;;;;;;;;;5091956;28;1107;-72
2022/08/11 09:19:40;;;;;;;;;;;;;;;;;;5092961;28;1336;-73
2022/08/11 09:27:35;;;;;;;;;;;;;;;;;;5074972;28;817;-74
2022/08/11 09:30:01;;;;;;;;;;;;;;;;;;5092724;28;1325;-73
2022/08/11 09:32:30;;;;;;;;;;;;;;;;;;5092487;28;853;-74
2022/08/11 09:34:57;;;;;;;;;;;;;;;;;;5074555;28;1922;-74
2022/08/11 09:45:36;;;;;;;;;;;;;;;;;;5092646;28;1020;-74
2022/08/11 09:48:05;;;;;;;;;;;;;;;;;;5080351;28;1677;-74
2022/08/11 09:50:32;;;;;;;;;;;;;;;;;;5054181;28;1333;-74
2022/08/11 09:52:58;;;;;;;;;;;;;;;;;;5071282;28;1067;-73
2022/08/11 09:55:24;;;;;;;;;;;;;;;;;;5052430;28;1910;-74
2022/08/11 10:00:39;;;;;;;;;;;;;;;;;;5034208;28;1477;-73
2022/08/11 10:03:08;;;;;;;;;;;;;;;;;;5064069;28;1495;-75
2022/08/11 10:08:18;;;;;;;;;;;;;;;;;;5072038;28;1016;-74
2022/08/11 10:10:45;;;;;;;;;;;;;;;;;;5054053;28;1527;-73
2022/08/11 10:13:13;;;;;;;;;;;;;;;;;;5053623;28;1588;-72
2022/08/11 10:15:39;;;;;;;;;;;;;;;;;;5071827;28;1973;-72
2022/08/11 10:20:53;;;;;;;;;;;;;;;;;;5071088;28;1339;-71
2022/08/11 10:28:48;;;;;;;;;;;;;;;;;;5059870;28;1476;-74
2022/08/11 10:34:02;;;;;;;;;;;;;;;;;;5068780;28;1274;-73
2022/08/11 10:36:29;;;;;;;;;;;;;;;;;;5071118;28;1917;-74
2022/08/11 10:38:55;;;;;;;;;;;;;;;;;;5071508;28;1392;-74
2022/08/11 10:44:05;;;;;;;;;;;;;;;;;;5070978;28;1297;-74
2022/08/11 10:49:17;;;;;;;;;;;;;;;;;;5070571;28;1406;-74
2022/08/11 10:59:55;;;;;;;;;;;;;;;;;;5050584;28;1350;-74
2022/08/11 11:02:22;;;;;;;;;;;;;;;;;;5050508;28;1063;-73
2022/08/11 11:04:57;;;;;;;;;;;;;;;;;;5050822;28;1067;-74
2022/08/11 11:07:24;;;;;;;;;;;;;;;;;;5051247;28;941;-73
2022/08/11 11:09:51;;;;;;;;;;;;;;;;;;5032764;28;1330;-74
2022/08/11 11:18:03;;;;;;;;;;;;;;;;;;5051116;28;988;-73
2022/08/11 11:20:33;;;;;;;;;;;;;;;;;;5050861;28;1393;-74
2022/08/11 11:23:01;;;;;;;;;;;;;;;;;;5050176;28;625;-73
2022/08/11 11:25:35;;;;;;;;;;;;;;;;;;5050014;28;842;-73
2022/08/11 11:28:15;;;;;;;;;;;;;;;;;;5050947;28;1071;-73
2022/08/11 11:30:42;;;;;;;;;;;;;;;;;;5050501;28;1346;-73
2022/08/11 11:33:11;;;;;;;;;;;;;;;;;;5050426;28;1464;-73
2022/08/11 11:35:43;;;;;;;;;;;;;;;;;;5033008;28;1977;-74
2022/08/11 11:38:09;;;;;;;;;;;;;;;;;;5050567;28;774;-74
2022/08/11 11:40:37;;;;;;;;;;;;;;;;;;5050189;28;1393;-73
2022/08/11 11:43:04;;;;;;;;;;;;;;;;;;5043681;28;1462;-75
2022/08/11 11:45:30;;;;;;;;;;;;;;;;;;5070633;28;831;-74
2022/08/11 11:47:58;;;;;;;;;;;;;;;;;;5070579;28;1055;-75
2022/08/11 11:50:24;;;;;;;;;;;;;;;;;;5035311;28;1413;-74
2022/08/11 11:52:52;;;;;;;;;;;;;;;;;;5035686;28;1211;-74
2022/08/11 11:55:19;;;;;;;;;;;;;;;;;;5052398;28;1913;-75
2022/08/11 12:03:13;;;;;;;;;;;;;;;;;;5058460;28;1368;-74
2022/08/11 12:05:39;;;;;;;;;;;;;;;;;;5050896;28;1697;-73
2022/08/11 12:08:11;;;;;;;;;;;;;;;;;;5051920;28;1427;-74
2022/08/11 12:10:38;;;;;;;;;;;;;;;;;;5069522;28;1429;-74
2022/08/11 12:15:48;;;;;;;;;;;;;;;;;;5068933;28;1964;-75
2022/08/11 12:18:14;;;;;;;;;;;;;;;;;;5059349;28;1384;-74
2022/08/11 12:20:40;;;;;;;;;;;;;;;;;;5066306;28;1317;-75
2022/08/11 12:28:35;;;;;;;;;;;;;;;;;;5051012;28;1471;-75
2022/08/11 12:31:01;;;;;;;;;;;;;;;;;;5047330;28;1457;-75
2022/08/11 12:33:27;;;;;;;;;;;;;;;;;;5062680;28;1190;-75
2022/08/11 12:35:55;;;;;;;;;;;;;;;;;;5062056;28;1918;-75
2022/08/11 12:38:23;;;;;;;;;;;;;;;;;;5063365;28;1515;-75
2022/08/11 12:46:18;;;;;;;;;;;;;;;;;;5073432;28;1280;-76
2022/08/11 12:54:17;;;;;;;;;;;;;;;;;;5072505;28;1147;-75
2022/08/11 13:04:59;;;;;;;;;;;;;;;;;;5071371;28;1455;-76
2022/08/11 13:07:26;;;;;;;;;;;;;;;;;;5071448;28;1503;-77
2022/08/11 13:09:54;;;;;;;;;;;;;;;;;;5072518;28;1437;-76
2022/08/11 13:15:04;;;;;;;;;;;;;;;;;;5072517;28;909;-76
2022/08/11 13:17:33;;;;;;;;;;;;;;;;;;5072781;28;2001;-76
2022/08/11 13:19:59;;;;;;;;;;;;;;;;;;5069622;28;1412;-76
2022/08/11 13:22:25;;;;;;;;;;;;;;;;;;5071461;28;1063;-76
2022/08/11 13:24:54;;;;;;;;;;;;;;;;;;5072333;28;831;-74
2022/08/11 13:27:20;;;;;;;;;;;;;;;;;;5054933;28;1156;-77
2022/08/11 13:29:46;;;;;;;;;;;;;;;;;;5052913;28;1428;-76
2022/08/11 13:32:13;;;;;;;;;;;;;;;;;;5071197;28;1283;-77
2022/08/11 13:34:41;;;;;;;;;;;;;;;;;;5071538;28;1416;-77
2022/08/11 13:37:07;;;;;;;;;;;;;;;;;;5071441;28;1981;-76
2022/08/11 13:39:34;;;;;;;;;;;;;;;;;;5090822;28;1332;-77
2022/08/11 13:42:02;;;;;;;;;;;;;;;;;;5091797;28;1123;-76
2022/08/11 13:44:30;;;;;;;;;;;;;;;;;;5060385;28;1401;-76
2022/08/11 13:46:57;;;;;;;;;;;;;;;;;;5050617;28;1215;-76
2022/08/11 13:49:23;;;;;;;;;;;;;;;;;;5069572;28;1399;-76
2022/08/11 13:51:49;;;;;;;;;;;;;;;;;;5066516;28;1459;-76
2022/08/11 13:54:16;;;;;;;;;;;;;;;;;;5069707;28;1432;-76
2022/08/11 13:56:42;;;;;;;;;;;;;;;;;;5071973;28;1918;-76
2022/08/11 13:59:10;;;;;;;;;;;;;;;;;;5070056;28;1352;-77
2022/08/11 14:01:38;;;;;;;;;;;;;;;;;;5044522;28;1571;-77
2022/08/11 14:04:06;;;;;;;;;;;;;;;;;;5053187;28;1421;-76
2022/08/11 14:06:33;;;;;;;;;;;;;;;;;;5047804;28;1405;-76
2022/08/11 14:08:59;;;;;;;;;;;;;;;;;;5065456;28;1463;-76
2022/08/11 14:14:11;;;;;;;;;;;;;;;;;;5052388;28;1468;-76
2022/08/11 14:16:39;;;;;;;;;;;;;;;;;;5071488;28;1922;-76
2022/08/11 14:19:05;;;;;;;;;;;;;;;;;;5053590;28;1341;-76
2022/08/11 14:24:22;;;;;;;;;;;;;;;;;;5037183;28;1554;-77
2022/08/11 14:26:50;;;;;;;;;;;;;;;;;;5070718;28;1420;-77
2022/08/11 14:29:17;;;;;;;;;;;;;;;;;;5071585;28;1329;-77
2022/08/11 14:31:44;;;;;;;;;;;;;;;;;;5069282;28;1569;-78
2022/08/11 14:34:11;;;;;;;;;;;;;;;;;;5062664;28;1170;-78
2022/08/11 14:36:38;;;;;;;;;;;;;;;;;;5072290;28;1918;-77
2022/08/11 14:39:06;;;;;;;;;;;;;;;;;;5072139;28;1325;-77
2022/08/11 14:47:06;;;;;;;;;;;;;;;;;;5072075;28;1139;-76
2022/08/11 14:49:33;;;;;;;;;;;;;;;;;;5070897;28;1482;-77
2022/08/11 14:52:00;;;;;;;;;;;;;;;;;;5071610;28;1114;-76
2022/08/11 14:57:11;;;;;;;;;;;;;;;;;;5072771;28;1993;-75
2022/08/11 14:59:38;;;;;;;;;;;;;;;;;;5074435;22;3578;-81
2022/08/11 15:04:49;;;;;;;;;;;;;;;;;;5103788;28;1464;-80
2022/08/11 15:07:15;;;;;;;;;;;;;;;;;;5088956;28;1198;-81
2022/08/11 15:09:42;;;;;;;;;;;;;;;;;;5097263;28;1421;-81
2022/08/11 15:12:15;;;;;;;;;;;;;;;;;;5086778;28;1469;-81
2022/08/11 15:17:26;;;;;;;;;;;;;;;;;;5093704;28;1913;-81
2022/08/11 15:25:20;;;;;;;;;;;;;;;;;;5080412;28;1858;-80
2022/08/11 15:38:47;;;;;;;;;;;;;;;;;;5072054;28;1603;-81
2022/08/11 15:46:42;;;;;;;;;;;;;;;;;;5057635;28;1371;-82
2022/08/11 15:49:11;;;;;;;;;;;;;;;;;;5072168;28;1400;-81
2022/08/11 15:51:37;;;;;;;;;;;;;;;;;;5074863;28;1399;-80
2022/08/11 15:54:05;;;;;;;;;;;;;;;;;;5088149;28;1379;-81
2022/08/11 15:56:31;;;;;;;;;;;;;;;;;;5081331;28;1983;-81
2022/08/11 16:04:29;;;;;;;;;;;;;;;;;;5077018;28;1539;-79
2022/08/11 16:06:56;;;;;;;;;;;;;;;;;;5071043;28;1442;-80
2022/08/11 16:09:23;;;;;;;;;;;;;;;;;;5090418;28;1451;-79
2022/08/11 16:11:50;;;;;;;;;;;;;;;;;;5093596;28;873;-79
2022/08/11 16:17:00;;;;;;;;;;;;;;;;;;5079230;28;1911;-79
2022/08/11 16:19:27;;;;;;;;;;;;;;;;;;5091536;28;1458;-78
2022/08/11 16:21:55;;;;;;;;;;;;;;;;;;5093085;28;1169;-79
2022/08/11 16:24:21;;;;;;;;;;;;;;;;;;5065948;28;1183;-80
2022/08/11 16:26:48;;;;;;;;;;;;;;;;;;5056159;28;1456;-79
2022/08/11 16:29:14;;;;;;;;;;;;;;;;;;5094959;28;1336;-80
2022/08/11 16:31:40;;;;;;;;;;;;;;;;;;5103296;28;1091;-79
2022/08/11 16:38:33;;;;;;;;;;;;;;;;;;5097823;28;1422;-81
2022/08/11 16:39:38;;;;;;;;;;;;;;;;;;5068574;28;1955;-80
2022/08/11 16:47:32;;;;;;;;;;;;;;;;;;5048781;28;1366;-80
2022/08/11 16:49:59;;;;;;;;;;;;;;;;;;5063344;28;1407;-80
2022/08/11 16:52:26;;;;;;;;;;;;;;;;;;5066215;28;1330;-78
2022/08/11 16:54:52;;;;;;;;;;;;;;;;;;5048358;28;1515;-81
2022/08/11 17:00:06;;;;;;;;;;;;;;;;;;5083891;28;1516;-80
2022/08/11 17:13:34;;;;;;;;;;;;;;;;;;5092783;28;1036;-79
2022/08/11 17:16:06;;;;;;;;;;;;;;;;;;5053281;28;1509;-79
2022/08/11 17:18:39;;;;;;;;;;;;;;;;;;5062271;28;1910;-79
2022/08/11 17:21:06;;;;;;;;;;;;;;;;;;5063403;28;1445;-79
2022/08/11 17:23:49;;;;;;;;;;;;;;;;;;5068291;28;1601;-78
2022/08/11 17:26:15;;;;;;;;;;;;;;;;;;5046656;28;1257;-79
2022/08/11 17:28:42;;;;;;;;;;;;;;;;;;5061885;28;1302;-78
2022/08/11 17:36:36;;;;;;;;;;;;;;;;;;5068168;28;2274;-79
2022/08/11 17:39:04;;;;;;;;;;;;;;;;;;5081989;28;1558;-78
2022/08/11 17:49:42;;;;;;;;;;;;;;;;;;5085215;28;1363;-78
2022/08/11 18:00:23;;;;;;;;;;;;;;;;;;5032807;28;1449;-78
2022/08/11 18:05:34;;;;;;;;;;;;;;;;;;5072270;28;1431;-78
